KMTP/MTP METAR and TAF weather

Enter ICAO airport designator
Station Type Date Time Source
KMTP METAR 2020/07/09 17:54 UTC NOAA

KMTP 091754Z AUTO VRB05KT 28/23 A3002 RMK AO1 SLP165 T02780233 10283 20244 58007


Station Type Date Time Source
KMTP Decoded METAR 2020/07/09 17:54 UTC NOAA

MONTAUK AIRPORT, NY, United States (KMTP) 41-04N 071-55W 2M
Jul 09, 2020 - 01:54 PM EDT / 2020.07.09 1754 UTC
Wind: Variable at 6 MPH (5 KT):0
Temperature: 82.0 F (27.8 C)
Dew Point: 73.9 F (23.3 C)
Relative Humidity: 76%
Pressure (altimeter): 30.02 in. Hg (1016 hPa)
Pressure tendency: 0.02 inches (0.7 hPa) lower than three hours ago
ob: KMTP 091754Z AUTO VRB05KT 28/23 A3002 RMK AO1 SLP165 T02780233 10283 20244 58007
cycle: 18

Station Type Date Time Source
KMTP TAF UTC NOAA

Error!

Example: see airport list